30NY weather

Coye Field
Canadice, New York, United States

Public forecast

Using degrees Fahrenheit for public forecast. Weather courtesy of forecast.io.

METAR (pilot weather report)

Closest report is Dansville Municipal Airport, 12.8 nm (23.6 km) SSW. Retrieved 2019/07/18 02:54 UTC (52 minutes ago):

KDSV 180254Z AUTO 00000KT 10SM FEW070 22/21 A2993 RMK AO2 SLP138 T02170211 52014

TAF (pilot weather forecast)

Forecast is more than 12 hours old.

Closest forecast is Greater Rochester International Airport, 22.7 nm (42.1 km) NNW. Retrieved 2019/07/17 00:42 UTC (1 day ago):

TAF KROC 172339Z 1800/1824 12004KT P6SM BKN020 FM180100 10004KT P6SM SCT025 FM180500 04004KT P6SM BKN015 FM181700 VRB03KT P6SM BKN040 FM182200 00000KT P6SM FEW120